Terminal Aerodrome Forecast
Issued by NWS

Home | Current Version | Previous Version | Text Only | Print | Product List | Glossary On
Versions: 1 2 3 4 5 6 7 8 9 10 11 12 13 14 15 16 17 18 19 20 21 22 23 24 25 26 27 28 29 30 31 32 33 34 35 36 37 38
000
FTUS45 KGJT 221918 AAA
TAFASE
TAF AMD
KASE 221918Z 2219/2318 34010G15KT P6SM VCSH SCT080 BKN100
     FM222000 36005G15KT P6SM VCTS SCT060CB BKN100
     FM222300 36005KT P6SM VCSH SCT080 BKN100
     FM230200 20004KT P6SM SCT080
     FM230600 21005KT P6SM SCT100
     FM231400 VRB03KT P6SM SKC=

USA.gov is the U.S. government's official web portal to all federal, state and local government web resources and services.